Time;durP1;ratioP1;P1;durP2;ratioP2;P2;SDS_P1;SDS_P2;PMS_P1;PMS_P2;Temp;Humidity;BMP_temperature;BMP_pressure;BME280_temperature;BME280_humidity;BME280_pressure;Samples;Min_cycle;Max_cycle;Signal;HPM_P1;HPM_P2
2022/10/15 00:00:39;;;;;;;5.60;3.88;;;13.80;83.80;;;;;;5011994;28;20037;-66
2022/10/15 00:03:05;;;;;;;4.82;3.40;;;13.80;83.80;;;;;;5009945;28;20049;-66
2022/10/15 00:05:31;;;;;;;4.85;3.47;;;13.80;83.80;;;;;;4994922;28;20127;-68
2022/10/15 00:07:57;;;;;;;6.53;3.70;;;13.70;83.80;;;;;;5009757;28;20033;-65
2022/10/15 00:10:23;;;;;;;9.75;4.32;;;13.70;83.70;;;;;;5011180;28;20056;-65
2022/10/15 00:12:48;;;;;;;6.88;4.13;;;13.70;83.70;;;;;;5010139;28;20030;-65
2022/10/15 00:15:14;;;;;;;6.60;4.22;;;13.70;83.60;;;;;;5007671;28;20034;-65
2022/10/15 00:17:40;;;;;;;8.32;4.15;;;13.70;83.60;;;;;;5002882;28;20022;-65
2022/10/15 00:20:08;;;;;;;8.63;5.05;;;13.60;83.50;;;;;;5011321;28;20092;-65
2022/10/15 00:22:34;;;;;;;8.43;6.40;;;13.60;83.60;;;;;;4993766;28;20482;-66
2022/10/15 00:25:00;;;;;;;6.57;4.93;;;13.60;83.60;;;;;;5008222;28;20101;-65
2022/10/15 00:27:26;;;;;;;6.75;4.70;;;13.60;83.70;;;;;;5000461;28;20030;-65
2022/10/15 00:29:51;;;;;;;7.85;5.13;;;13.60;83.70;;;;;;5010503;28;20073;-66
2022/10/15 00:32:17;;;;;;;5.75;4.95;;;13.60;83.70;;;;;;5013728;28;20469;-66
2022/10/15 00:34:43;;;;;;;9.60;5.10;;;13.60;83.70;;;;;;4993658;28;20121;-66
2022/10/15 00:37:09;;;;;;;6.82;4.28;;;13.50;83.70;;;;;;5010565;28;20026;-66
2022/10/15 00:39:36;;;;;;;7.15;4.68;;;13.50;83.70;;;;;;4993257;28;20448;-66
2022/10/15 00:42:02;;;;;;;5.63;4.13;;;13.50;83.70;;;;;;5011432;28;20080;-65
2022/10/15 00:44:30;;;;;;;6.13;4.38;;;13.50;83.70;;;;;;4993597;28;20443;-66
2022/10/15 00:47:15;;;;;;;5.93;3.83;;;13.50;83.70;;;;;;4990561;28;20034;-66
2022/10/15 00:50:09;;;;;;;5.65;3.92;;;13.50;83.60;;;;;;5010342;28;20021;-65
2022/10/15 00:52:53;;;;;;;6.72;3.85;;;13.40;83.60;;;;;;5004136;28;20053;-66
2022/10/15 00:55:35;;;;;;;3.60;2.88;;;13.40;83.60;;;;;;5010823;28;20084;-65
2022/10/15 00:58:16;;;;;;;5.88;3.92;;;13.30;83.60;;;;;;5010264;28;20022;-66
2022/10/15 01:00:42;;;;;;;4.82;3.67;;;13.30;83.60;;;;;;4991958;28;20030;-67
2022/10/15 01:03:08;;;;;;;7.65;4.07;;;13.20;83.60;;;;;;5014276;28;20061;-66
2022/10/15 01:05:36;;;;;;;5.80;3.90;;;13.20;83.70;;;;;;5009817;28;20053;-66
2022/10/15 01:08:01;;;;;;;5.97;3.90;;;13.20;83.70;;;;;;5009691;28;20022;-66
2022/10/15 01:10:36;;;;;;;3.33;2.78;;;13.20;83.70;;;;;;5009132;28;21636;-66
2022/10/15 01:13:14;;;;;;;4.25;3.30;;;13.10;83.50;;;;;;5014952;28;20079;-66
2022/10/15 01:15:50;;;;;;;4.38;3.75;;;13.20;83.50;;;;;;5018118;28;20061;-66
2022/10/15 01:18:45;;;;;;;5.00;3.65;;;13.10;83.50;;;;;;5001835;28;20052;-66
2022/10/15 01:21:17;;;;;;;5.80;3.53;;;13.10;83.30;;;;;;5007719;28;20045;-66
2022/10/15 01:23:49;;;;;;;5.03;3.88;;;13.10;83.50;;;;;;4997417;28;20071;-66
2022/10/15 01:26:48;;;;;;;5.25;3.92;;;13.10;83.50;;;;;;5010053;28;20056;-66
2022/10/15 01:29:50;;;;;;;9.25;3.47;;;13.10;83.50;;;;;;5013411;28;20033;-66
2022/10/15 01:32:25;;;;;;;4.75;3.67;;;13.00;83.50;;;;;;5000716;28;20025;-66
2022/10/15 01:35:19;;;;;;;5.97;3.65;;;13.00;83.60;;;;;;5012964;28;20041;-66
2022/10/15 01:38:08;;;;;;;4.97;4.13;;;13.10;83.60;;;;;;4999919;28;20354;-67
2022/10/15 01:40:51;;;;;;;6.40;3.83;;;13.00;83.70;;;;;;5010066;28;20014;-66
2022/10/15 01:43:38;;;;;;;6.85;4.32;;;13.10;83.80;;;;;;5009488;28;20254;-66
2022/10/15 01:46:09;;;;;;;4.15;2.90;;;13.10;83.90;;;;;;5004186;28;20022;-66
2022/10/15 01:48:36;;;;;;;8.23;4.18;;;13.10;84.00;;;;;;5009389;28;20044;-67
2022/10/15 01:51:04;;;;;;;6.05;3.72;;;13.10;83.90;;;;;;4986676;28;20147;-68
2022/10/15 01:53:33;;;;;;;4.47;2.80;;;13.10;83.90;;;;;;4991755;28;20029;-66
2022/10/15 01:56:20;;;;;;;5.07;3.78;;;13.20;83.90;;;;;;5009839;28;20029;-66
2022/10/15 01:58:50;;;;;;;4.03;3.53;;;13.20;83.90;;;;;;5018074;28;20029;-66
2022/10/15 02:01:16;;;;;;;2.53;2.33;;;13.20;84.10;;;;;;5012023;28;20563;-66
2022/10/15 02:03:47;;;;;;;2.83;2.60;;;13.20;84.10;;;;;;4991432;28;20060;-66
2022/10/15 02:06:38;;;;;;;4.88;2.97;;;13.30;84.10;;;;;;5018665;28;20095;-67
2022/10/15 02:09:23;;;;;;;4.47;2.95;;;13.20;84.00;;;;;;5009365;28;20042;-67
2022/10/15 02:11:56;;;;;;;4.75;2.90;;;13.30;84.10;;;;;;5011100;28;20026;-66
2022/10/15 02:14:35;;;;;;;5.00;2.72;;;13.30;84.10;;;;;;5002330;28;20034;-66
2022/10/15 02:17:11;;;;;;;4.57;2.70;;;13.30;84.00;;;;;;5005338;28;20037;-66
2022/10/15 02:19:58;;;;;;;4.20;2.35;;;13.30;84.00;;;;;;5011219;28;20022;-67
2022/10/15 02:22:31;;;;;;;2.90;2.60;;;13.40;84.00;;;;;;5006306;28;20026;-66
2022/10/15 02:25:05;;;;;;;;;;;13.30;84.10;;;;;;5016628;28;20137;-67
2022/10/15 02:27:33;;;;;;;3.83;2.78;;;13.30;84.00;;;;;;5016078;28;20380;-67
2022/10/15 02:30:02;;;;;;;3.78;3.28;;;13.30;84.10;;;;;;5011600;28;20492;-67
2022/10/15 02:32:30;;;;;;;4.78;3.45;;;13.30;84.00;;;;;;5016099;28;20058;-67
2022/10/15 02:34:56;;;;;;;4.28;3.15;;;13.40;84.10;;;;;;5015811;28;20516;-66
2022/10/15 02:37:26;;;;;;;3.53;3.00;;;13.40;84.10;;;;;;4996919;28;20025;-67
2022/10/15 02:39:52;;;;;;;4.90;2.75;;;13.40;84.30;;;;;;5014455;28;20034;-67
2022/10/15 02:42:18;;;;;;;4.80;3.25;;;13.30;84.10;;;;;;5003975;28;20036;-67
2022/10/15 02:44:44;;;;;;;4.25;2.72;;;13.30;84.10;;;;;;5024225;28;20543;-66
2022/10/15 02:47:10;;;;;;;4.25;2.92;;;13.30;84.10;;;;;;5015331;28;20026;-66
2022/10/15 02:49:36;;;;;;;3.65;3.25;;;13.30;84.10;;;;;;5002439;28;20026;-66
2022/10/15 02:52:03;;;;;;;5.15;2.95;;;13.30;84.10;;;;;;5015554;28;20389;-66
2022/10/15 02:54:28;;;;;;;3.70;3.15;;;13.30;84.10;;;;;;4982229;28;20034;-66
2022/10/15 02:56:54;;;;;;;3.90;2.92;;;13.30;84.20;;;;;;5015680;28;20370;-67
2022/10/15 02:59:20;;;;;;;3.83;3.38;;;13.30;84.20;;;;;;4997704;28;20038;-67
2022/10/15 03:01:46;;;;;;;3.38;2.67;;;13.30;84.10;;;;;;4997158;28;20466;-67
2022/10/15 03:04:12;;;;;;;3.30;2.50;;;13.30;84.10;;;;;;5015654;28;20030;-67
2022/10/15 03:06:38;;;;;;;3.17;2.88;;;13.30;84.00;;;;;;5014280;28;20030;-67
2022/10/15 03:09:04;;;;;;;4.32;2.60;;;13.30;84.00;;;;;;5018192;28;20033;-67
2022/10/15 03:11:29;;;;;;;3.35;2.85;;;13.30;83.90;;;;;;4999819;28;20581;-67
2022/10/15 03:13:55;;;;;;;4.43;2.38;;;13.30;83.90;;;;;;5016276;28;20113;-67
2022/10/15 03:16:21;;;;;;;3.92;2.75;;;13.30;84.00;;;;;;5015252;28;20038;-66
2022/10/15 03:18:47;;;;;;;3.50;2.47;;;13.30;83.90;;;;;;5014615;28;20041;-67
2022/10/15 03:21:12;;;;;;;4.22;2.35;;;13.30;83.90;;;;;;5015329;28;20034;-67
2022/10/15 03:23:38;;;;;;;2.92;2.67;;;13.20;83.90;;;;;;5014422;28;20030;-67
2022/10/15 03:26:04;;;;;;;3.58;3.22;;;13.10;83.90;;;;;;4998627;28;20057;-66
2022/10/15 03:28:29;;;;;;;2.45;2.05;;;13.10;83.80;;;;;;5027661;28;20168;-67
2022/10/15 03:30:55;;;;;;;2.70;2.50;;;13.10;83.80;;;;;;5011440;28;20026;-67
2022/10/15 03:33:21;;;;;;;5.13;3.28;;;13.00;83.70;;;;;;4993971;28;20026;-67
2022/10/15 03:35:46;;;;;;;3.58;3.20;;;13.00;83.70;;;;;;5012614;28;20069;-67
2022/10/15 03:38:12;;;;;;;4.15;3.25;;;13.00;83.70;;;;;;4994072;28;20117;-67
2022/10/15 03:40:38;;;;;;;5.72;3.88;;;13.00;83.70;;;;;;5014871;28;20025;-66
2022/10/15 03:43:04;;;;;;;3.70;2.90;;;12.90;83.70;;;;;;5012564;28;20030;-66
2022/10/15 03:45:31;;;;;;;2.47;2.20;;;12.90;83.70;;;;;;4992785;28;20489;-67
2022/10/15 03:47:56;;;;;;;4.32;3.03;;;12.90;83.70;;;;;;4993922;28;20478;-67
2022/10/15 03:50:22;;;;;;;3.97;3.22;;;12.90;83.70;;;;;;4983324;28;20038;-66
2022/10/15 03:52:47;;;;;;;3.25;2.60;;;12.90;83.70;;;;;;5011256;28;20041;-67
2022/10/15 03:55:13;;;;;;;5.75;3.78;;;12.90;83.70;;;;;;5012619;28;20049;-66
2022/10/15 03:57:39;;;;;;;8.60;3.67;;;12.90;83.70;;;;;;5015610;28;20030;-66
2022/10/15 04:00:06;;;;;;;12.07;3.15;;;13.00;83.70;;;;;;5016789;28;20048;-66
2022/10/15 04:02:32;;;;;;;4.50;3.20;;;13.00;83.80;;;;;;5016646;28;20034;-67
2022/10/15 04:04:58;;;;;;;5.75;3.42;;;13.00;83.70;;;;;;5011671;28;20037;-67
2022/10/15 04:07:24;;;;;;;6.28;3.38;;;13.10;83.70;;;;;;5011250;28;20465;-68
2022/10/15 04:09:50;;;;;;;6.25;3.80;;;13.10;83.70;;;;;;4994057;28;20038;-68
2022/10/15 04:12:16;;;;;;;4.40;3.63;;;13.10;83.70;;;;;;4993530;28;20109;-67
2022/10/15 04:14:41;;;;;;;4.88;3.92;;;13.10;83.80;;;;;;4990616;28;20025;-67
2022/10/15 04:17:07;;;;;;;5.93;3.63;;;13.20;83.90;;;;;;5012732;28;20452;-66
2022/10/15 04:19:33;;;;;;;6.40;4.13;;;13.20;84.50;;;;;;5011104;28;20030;-67
2022/10/15 04:21:59;;;;;;;6.40;3.92;;;13.20;84.00;;;;;;4997264;28;20053;-66
2022/10/15 04:24:24;;;;;;;5.28;4.20;;;13.10;83.90;;;;;;5011571;28;20521;-67
2022/10/15 04:26:50;;;;;;;5.07;3.83;;;13.20;84.00;;;;;;5010050;28;20053;-66
2022/10/15 04:29:16;;;;;;;4.07;2.92;;;13.20;84.10;;;;;;5010914;28;20033;-66
2022/10/15 04:31:42;;;;;;;4.45;3.70;;;13.20;84.10;;;;;;5018726;28;20148;-68
2022/10/15 04:34:08;;;;;;;6.43;3.38;;;13.20;84.10;;;;;;5010398;28;20041;-66
2022/10/15 04:36:34;;;;;;;6.03;3.35;;;13.20;84.10;;;;;;5011543;28;20030;-66
2022/10/15 04:39:00;;;;;;;6.57;4.63;;;13.20;84.50;;;;;;4997519;28;20485;-66
2022/10/15 04:41:26;;;;;;;5.85;3.78;;;13.20;84.10;;;;;;5011179;28;20040;-67
2022/10/15 04:43:52;;;;;;;7.95;4.07;;;13.20;84.10;;;;;;4987740;28;20033;-67
2022/10/15 04:46:18;;;;;;;5.22;3.53;;;13.20;84.10;;;;;;5010716;28;20113;-66
2022/10/15 04:48:44;;;;;;;4.90;3.80;;;13.30;84.10;;;;;;5010509;28;20058;-67
2022/10/15 04:51:16;;;;;;;6.35;3.45;;;13.30;84.10;;;;;;5014592;28;20040;-66
2022/10/15 04:53:42;;;;;;;5.43;4.05;;;13.30;84.10;;;;;;5014240;28;20029;-66
2022/10/15 04:56:16;;;;;;;7.28;4.30;;;13.30;84.20;;;;;;5010837;28;20021;-67
2022/10/15 04:58:44;;;;;;;4.25;3.35;;;13.30;84.10;;;;;;5009838;28;20120;-65
2022/10/15 05:01:12;;;;;;;6.28;4.25;;;13.30;84.20;;;;;;5012356;28;20375;-65
2022/10/15 05:03:39;;;;;;;6.35;4.05;;;13.30;84.30;;;;;;4993725;28;20038;-66
2022/10/15 05:06:11;;;;;;;3.70;3.20;;;13.30;84.30;;;;;;5008321;28;20034;-65
2022/10/15 05:08:37;;;;;;;6.50;4.03;;;13.30;85.00;;;;;;5003679;28;20063;-65
2022/10/15 05:11:08;;;;;;;4.00;3.20;;;13.30;84.40;;;;;;5019130;28;20045;-67
2022/10/15 05:13:34;;;;;;;6.10;3.65;;;13.30;84.40;;;;;;5013884;28;20026;-65
2022/10/15 05:16:12;;;;;;;5.90;4.03;;;13.30;84.50;;;;;;4997951;28;20081;-65
2022/10/15 05:18:38;;;;;;;5.82;3.95;;;13.40;84.50;;;;;;4995877;28;20038;-65
2022/10/15 05:21:04;;;;;;;6.15;4.53;;;13.30;84.50;;;;;;5009719;28;20044;-65
2022/10/15 05:23:30;;;;;;;6.55;4.18;;;13.40;84.50;;;;;;5008371;28;20026;-66
2022/10/15 05:25:59;;;;;;;6.20;3.47;;;13.40;84.50;;;;;;5009401;28;20066;-66
2022/10/15 05:28:25;;;;;;;5.10;3.85;;;13.40;84.50;;;;;;5008708;28;20054;-66
2022/10/15 05:30:50;;;;;;;6.55;4.05;;;13.50;84.60;;;;;;4992404;28;20057;-65
2022/10/15 05:33:16;;;;;;;6.72;3.72;;;13.50;84.60;;;;;;5009721;28;20037;-66
2022/10/15 05:35:42;;;;;;;6.25;4.22;;;13.50;84.60;;;;;;4992320;28;20495;-66
2022/10/15 05:38:07;;;;;;;4.25;3.33;;;13.50;84.50;;;;;;4991089;28;20037;-67
2022/10/15 05:40:33;;;;;;;6.85;3.90;;;13.60;84.50;;;;;;5010236;28;20037;-66
2022/10/15 05:42:58;;;;;;;6.97;4.30;;;13.60;84.50;;;;;;5009748;28;20037;-67
2022/10/15 05:45:24;;;;;;;5.75;3.85;;;13.60;84.50;;;;;;5009987;28;20074;-66
2022/10/15 05:47:54;;;;;;;4.95;3.60;;;13.60;84.50;;;;;;4991030;28;20065;-66
2022/10/15 05:50:20;;;;;;;5.70;4.07;;;13.60;84.50;;;;;;5008700;28;20079;-65
2022/10/15 05:52:45;;;;;;;6.65;4.55;;;13.60;84.60;;;;;;5009678;28;20026;-65
2022/10/15 05:55:11;;;;;;;6.68;4.30;;;13.70;84.70;;;;;;5010004;28;20091;-65
2022/10/15 05:57:37;;;;;;;6.47;4.30;;;13.70;84.70;;;;;;5009857;28;20041;-65
2022/10/15 06:00:06;;;;;;;6.20;3.80;;;13.70;84.70;;;;;;5005921;28;20038;-66
2022/10/15 06:02:32;;;;;;;4.75;3.55;;;13.70;84.80;;;;;;5009876;28;20113;-66
2022/10/15 06:04:57;;;;;;;6.00;4.13;;;13.70;84.80;;;;;;5009573;28;20144;-65
2022/10/15 06:07:23;;;;;;;8.82;4.63;;;13.70;84.80;;;;;;5007793;28;20034;-65
2022/10/15 06:09:49;;;;;;;5.07;3.85;;;13.70;84.80;;;;;;4991206;28;20068;-65
2022/10/15 06:12:14;;;;;;;3.83;3.47;;;13.80;84.90;;;;;;4992253;28;20469;-66
2022/10/15 06:14:40;;;;;;;5.57;4.03;;;13.80;85.00;;;;;;5009179;28;20040;-66
2022/10/15 06:17:05;;;;;;;6.97;4.50;;;13.80;85.00;;;;;;5009843;28;20030;-66
2022/10/15 06:19:31;;;;;;;7.03;4.70;;;13.80;85.00;;;;;;4997691;28;20024;-66
2022/10/15 06:21:57;;;;;;;5.50;4.68;;;13.80;85.10;;;;;;4992717;28;20045;-65
2022/10/15 06:24:22;;;;;;;14.15;6.00;;;13.80;85.10;;;;;;5009575;28;20034;-65
2022/10/15 06:26:48;;;;;;;5.85;4.45;;;13.80;85.20;;;;;;5009011;28;20501;-65
2022/10/15 06:29:14;;;;;;;8.68;5.20;;;13.80;85.30;;;;;;5010069;28;20029;-65
2022/10/15 06:31:39;;;;;;;7.65;5.60;;;13.80;85.30;;;;;;5008980;28;20065;-66
2022/10/15 06:34:05;;;;;;;6.07;5.32;;;13.80;85.30;;;;;;5009706;28;20432;-65
2022/10/15 06:36:31;;;;;;;7.13;5.13;;;13.90;85.30;;;;;;5008409;28;20509;-65
2022/10/15 06:38:56;;;;;;;8.77;5.45;;;14.00;85.40;;;;;;5009933;28;20124;-66
2022/10/15 06:41:22;;;;;;;6.00;4.63;;;14.00;85.40;;;;;;5008718;28;20037;-67
2022/10/15 06:43:49;;;;;;;7.75;6.28;;;14.00;85.30;;;;;;5009292;28;20037;-65
2022/10/15 06:46:15;;;;;;;8.25;6.20;;;14.10;85.40;;;;;;5008447;28;20482;-65
2022/10/15 06:48:40;;;;;;;6.13;4.97;;;14.10;85.40;;;;;;5001331;28;20382;-65
2022/10/15 06:51:06;;;;;;;11.02;6.13;;;14.10;85.60;;;;;;5008690;28;20028;-65
2022/10/15 06:53:32;;;;;;;13.13;5.97;;;14.10;85.80;;;;;;5008284;28;20034;-65
2022/10/15 06:55:59;;;;;;;9.05;5.90;;;14.20;85.80;;;;;;5008491;28;20034;-66
2022/10/15 06:58:25;;;;;;;11.73;6.32;;;14.20;86.10;;;;;;4992059;28;20034;-67
2022/10/15 07:00:51;;;;;;;10.25;6.60;;;14.20;86.00;;;;;;5012698;28;20042;-68
2022/10/15 07:03:17;;;;;;;13.40;6.15;;;14.30;86.10;;;;;;5012016;28;20056;-67
2022/10/15 07:05:43;;;;;;;11.88;6.35;;;14.30;86.00;;;;;;4994214;28;20029;-67
2022/10/15 07:08:08;;;;;;;10.23;6.80;;;14.30;86.00;;;;;;5011782;28;20039;-69
2022/10/15 07:10:34;;;;;;;11.07;6.07;;;14.40;85.90;;;;;;5011777;28;20030;-68
2022/10/15 07:13:00;;;;;;;6.03;4.55;;;14.40;85.80;;;;;;4994633;28;20091;-67
2022/10/15 07:15:27;;;;;;;8.02;4.45;;;14.50;85.80;;;;;;4989903;28;20169;-68
2022/10/15 07:18:00;;;;;;;7.53;3.85;;;14.50;85.80;;;;;;5011461;28;20030;-67
2022/10/15 07:20:29;;;;;;;7.40;6.18;;;14.50;85.80;;;;;;5012515;28;20028;-67
2022/10/15 07:22:57;;;;;;;10.02;5.70;;;14.50;85.80;;;;;;4994739;28;20038;-66
2022/10/15 07:25:23;;;;;;;10.07;6.07;;;14.50;85.80;;;;;;5012111;28;20126;-67
2022/10/15 07:27:49;;;;;;;7.47;4.75;;;14.50;85.70;;;;;;4998448;28;20500;-68
2022/10/15 07:30:15;;;;;;;10.70;6.63;;;14.60;85.70;;;;;;5012388;28;20084;-66
2022/10/15 07:32:40;;;;;;;9.35;6.43;;;14.60;85.80;;;;;;5012567;28;20369;-67
2022/10/15 07:35:06;;;;;;;9.90;6.53;;;14.70;85.90;;;;;;5000035;28;20031;-68
2022/10/15 07:37:32;;;;;;;11.02;6.30;;;14.70;85.80;;;;;;4990628;28;20042;-68
2022/10/15 07:39:58;;;;;;;6.88;5.35;;;14.70;85.60;;;;;;5009205;28;20456;-67
2022/10/15 07:42:24;;;;;;;8.13;5.93;;;14.80;85.70;;;;;;5017512;28;20409;-66
2022/10/15 07:44:50;;;;;;;5.95;4.95;;;14.80;85.70;;;;;;5015371;28;20489;-67
2022/10/15 07:47:16;;;;;;;8.93;5.82;;;14.80;85.70;;;;;;5000969;28;20088;-68
2022/10/15 07:49:41;;;;;;;7.57;5.57;;;14.80;85.70;;;;;;5016339;28;20379;-67
2022/10/15 07:52:07;;;;;;;7.90;5.03;;;14.90;85.60;;;;;;5017340;28;20044;-65
2022/10/15 07:54:33;;;;;;;9.05;5.70;;;14.90;85.60;;;;;;5016287;28;20477;-67
2022/10/15 07:56:59;;;;;;;8.70;5.45;;;14.90;85.60;;;;;;5021803;28;20041;-66
2022/10/15 07:59:25;;;;;;;5.93;5.32;;;14.90;85.50;;;;;;5021719;28;20030;-66
2022/10/15 08:01:51;;;;;;;11.60;7.88;;;14.90;85.80;;;;;;5002483;28;20504;-65
2022/10/15 08:04:17;;;;;;;8.13;6.20;;;14.90;85.80;;;;;;5017498;28;20469;-66
2022/10/15 08:06:42;;;;;;;8.07;6.53;;;14.90;86.10;;;;;;4985783;28;20048;-66
2022/10/15 08:09:08;;;;;;;9.63;5.85;;;14.90;86.20;;;;;;4980736;28;20542;-65
2022/10/15 08:11:34;;;;;;;10.95;7.57;;;14.90;86.10;;;;;;4998947;28;20112;-67
2022/10/15 08:13:59;;;;;;;11.05;7.57;;;14.90;86.20;;;;;;5014065;28;20056;-66
2022/10/15 08:16:25;;;;;;;11.25;6.80;;;15.00;86.10;;;;;;4983135;28;20093;-67
2022/10/15 08:18:51;;;;;;;9.43;7.40;;;15.00;86.10;;;;;;4990727;28;20038;-67
2022/10/15 08:21:16;;;;;;;9.00;6.72;;;15.10;86.20;;;;;;5010593;28;20042;-66
2022/10/15 08:23:42;;;;;;;7.53;5.03;;;15.10;86.30;;;;;;5011426;28;20069;-66
2022/10/15 08:26:08;;;;;;;8.65;5.63;;;15.20;86.20;;;;;;5021653;28;20120;-67
2022/10/15 08:28:34;;;;;;;8.13;5.00;;;15.30;86.10;;;;;;5000904;28;20036;-66
2022/10/15 08:31:01;;;;;;;6.60;4.70;;;15.40;85.90;;;;;;5016226;28;20037;-66
2022/10/15 08:33:27;;;;;;;8.52;5.88;;;15.50;85.70;;;;;;5017831;28;20056;-66
2022/10/15 08:35:53;;;;;;;8.93;5.75;;;15.60;85.80;;;;;;5002613;28;20033;-66
2022/10/15 08:38:19;;;;;;;7.47;5.68;;;15.70;85.70;;;;;;5017888;28;20104;-66
2022/10/15 08:40:56;;;;;;;7.45;5.18;;;15.80;85.50;;;;;;5009033;28;20068;-66
2022/10/15 08:43:35;;;;;;;8.85;5.55;;;16.00;85.20;;;;;;5013578;28;20037;-66
2022/10/15 08:46:06;;;;;;;7.30;4.35;;;16.20;84.90;;;;;;5007386;28;20296;-67
2022/10/15 08:48:36;;;;;;;8.02;5.22;;;16.30;84.70;;;;;;5009654;28;20025;-66
2022/10/15 08:51:10;;;;;;;8.43;5.63;;;16.40;84.50;;;;;;5008023;28;20022;-66
2022/10/15 08:53:44;;;;;;;6.85;5.47;;;16.50;84.60;;;;;;4995599;28;20018;-66
2022/10/15 08:56:26;;;;;;;7.65;5.53;;;16.50;84.70;;;;;;5012291;28;20042;-66
2022/10/15 08:58:58;;;;;;;8.30;5.40;;;16.50;84.30;;;;;;5010043;28;20026;-67
2022/10/15 09:01:36;;;;;;;6.57;4.55;;;16.40;85.00;;;;;;5010046;28;20040;-66
2022/10/15 09:04:01;;;;;;;5.90;4.05;;;16.40;84.60;;;;;;5010749;28;20605;-67
2022/10/15 09:06:34;;;;;;;7.20;5.47;;;16.40;85.00;;;;;;5024499;28;20037;-67
2022/10/15 09:09:18;;;;;;;6.13;4.47;;;16.60;84.70;;;;;;5022016;28;20092;-68
2022/10/15 09:11:52;;;;;;;10.38;5.35;;;16.80;84.40;;;;;;4996266;28;20061;-68
2022/10/15 09:14:24;;;;;;;11.43;5.03;;;16.90;84.40;;;;;;5021027;28;20112;-68
2022/10/15 09:16:50;;;;;;;7.55;5.05;;;17.00;83.90;;;;;;5004203;28;20039;-68
2022/10/15 09:19:21;;;;;;;5.13;3.90;;;17.10;83.60;;;;;;5010217;28;20396;-68
2022/10/15 09:21:48;;;;;;;6.60;3.78;;;17.10;83.50;;;;;;5008607;28;20042;-67
2022/10/15 09:24:20;;;;;;;5.80;3.65;;;17.10;83.50;;;;;;4989009;28;20046;-67
2022/10/15 09:27:08;;;;;;;5.57;4.60;;;17.10;83.50;;;;;;5007040;28;20048;-67
2022/10/15 09:29:53;;;;;;;8.15;4.80;;;17.00;83.60;;;;;;5001973;28;20493;-67
2022/10/15 09:32:22;;;;;;;5.68;4.00;;;16.90;83.90;;;;;;5010012;28;20033;-67
2022/10/15 09:35:01;;;;;;;6.65;4.70;;;16.80;84.10;;;;;;5009967;28;20032;-67
2022/10/15 09:37:32;;;;;;;7.65;5.20;;;16.80;84.40;;;;;;5009227;28;20232;-67
2022/10/15 09:40:21;;;;;;;7.30;4.65;;;16.70;84.50;;;;;;5010258;28;20109;-67
2022/10/15 09:42:49;;;;;;;5.30;3.65;;;16.70;84.80;;;;;;5010901;28;20389;-67
2022/10/15 09:45:25;;;;;;;5.43;3.83;;;16.70;84.80;;;;;;5010500;28;20050;-67
2022/10/15 09:47:55;;;;;;;5.78;4.32;;;16.80;84.70;;;;;;5008421;28;20037;-67
2022/10/15 09:50:21;;;;;;;5.47;3.83;;;16.80;84.60;;;;;;5009684;28;20018;-67
2022/10/15 09:52:58;;;;;;;7.20;4.60;;;16.90;84.50;;;;;;5009304;28;20044;-67
2022/10/15 09:55:29;;;;;;;5.88;4.07;;;16.90;84.50;;;;;;5010591;28;20474;-67
2022/10/15 09:58:00;;;;;;;4.80;3.60;;;16.90;84.60;;;;;;5010750;28;20349;-67
2022/10/15 10:00:49;;;;;;;10.23;3.38;;;16.90;84.70;;;;;;5009597;28;20366;-67
2022/10/15 10:03:14;;;;;;;5.50;3.58;;;16.90;84.50;;;;;;4996447;28;20454;-67
2022/10/15 10:05:42;;;;;;;6.57;3.78;;;16.80;84.60;;;;;;4988781;28;20026;-67
2022/10/15 10:08:23;;;;;;;4.53;3.47;;;16.80;84.60;;;;;;5009284;28;20026;-67
2022/10/15 10:11:03;;;;;;;6.72;3.92;;;16.70;84.70;;;;;;4992278;28;20112;-67
2022/10/15 10:13:58;;;;;;;8.07;3.97;;;16.70;84.90;;;;;;4997651;28;20561;-67
2022/10/15 10:16:25;;;;;;;6.18;4.70;;;16.60;85.10;;;;;;5008543;28;20061;-68
2022/10/15 10:19:13;;;;;;;6.97;4.15;;;16.50;85.40;;;;;;5009935;28;20496;-67
2022/10/15 10:21:41;;;;;;;4.85;2.83;;;16.60;85.50;;;;;;5009243;28;20029;-67
2022/10/15 10:24:17;;;;;;;4.32;3.67;;;16.60;85.50;;;;;;4972785;28;20908;-67
2022/10/15 10:26:44;;;;;;;3.28;2.13;;;16.70;85.40;;;;;;5006761;28;20057;-66
2022/10/15 10:29:17;;;;;;;4.20;2.95;;;16.80;85.40;;;;;;5009331;28;20113;-66
2022/10/15 10:31:44;;;;;;;4.45;3.00;;;16.80;85.20;;;;;;5009349;28;20030;-67
2022/10/15 10:34:16;;;;;;;5.22;3.05;;;16.80;85.20;;;;;;5010576;28;20025;-66
2022/10/15 10:36:41;;;;;;;4.00;3.00;;;16.80;86.00;;;;;;5011792;28;20424;-65
2022/10/15 10:39:12;;;;;;;2.83;2.15;;;16.80;85.40;;;;;;5003879;28;20099;-67
2022/10/15 10:41:55;;;;;;;3.35;2.70;;;16.80;85.50;;;;;;5013434;28;20030;-67
2022/10/15 10:44:29;;;;;;;3.95;2.63;;;16.80;85.50;;;;;;5013514;28;20113;-67
2022/10/15 10:47:22;;;;;;;6.47;3.42;;;16.80;85.50;;;;;;5013033;28;20465;-67
2022/10/15 10:49:50;;;;;;;3.38;2.42;;;16.70;85.70;;;;;;5011716;28;20029;-67
2022/10/15 10:52:28;;;;;;;3.65;2.28;;;16.70;86.10;;;;;;5012768;28;20061;-65
2022/10/15 10:54:56;;;;;;;2.40;2.00;;;16.70;86.10;;;;;;5013004;28;20393;-66
2022/10/15 10:57:37;;;;;;;3.90;2.72;;;16.70;86.10;;;;;;5012435;28;20052;-67
2022/10/15 11:00:04;;;;;;;3.08;2.67;;;16.70;86.10;;;;;;5012906;28;20018;-67
2022/10/15 11:02:32;;;;;;;3.65;2.33;;;16.60;86.10;;;;;;4995311;28;20030;-67
2022/10/15 11:04:58;;;;;;;2.28;2.08;;;16.70;86.00;;;;;;4997989;28;20145;-66
2022/10/15 11:07:46;;;;;;;3.60;2.67;;;16.70;86.00;;;;;;5012060;28;20100;-67
2022/10/15 11:10:24;;;;;;;5.55;2.83;;;16.60;86.30;;;;;;4973684;28;20033;-67
2022/10/15 11:13:16;;;;;;;4.63;2.78;;;16.60;86.60;;;;;;5012915;28;20072;-67
2022/10/15 11:15:52;;;;;;;3.03;2.60;;;16.60;86.80;;;;;;5011960;28;20026;-67
2022/10/15 11:18:45;;;;;;;5.03;3.58;;;16.60;87.10;;;;;;5012131;28;20034;-67
2022/10/15 11:21:32;;;;;;;4.25;2.50;;;16.60;87.20;;;;;;4994918;28;20473;-67
2022/10/15 11:24:25;;;;;;;3.60;2.13;;;16.50;87.30;;;;;;5012230;28;20083;-68
2022/10/15 11:27:09;;;;;;;3.90;2.63;;;16.50;87.30;;;;;;5012118;28;20037;-68
2022/10/15 11:29:45;;;;;;;3.55;2.50;;;16.50;87.70;;;;;;5013120;28;20520;-68
2022/10/15 11:32:32;;;;;;;1.98;1.65;;;16.50;87.80;;;;;;5000958;28;20029;-67
2022/10/15 11:35:19;;;;;;;4.97;2.47;;;16.50;87.80;;;;;;5011626;28;20544;-66
2022/10/15 11:38:16;;;;;;;2.30;1.98;;;16.50;87.70;;;;;;5011835;28;20026;-66
2022/10/15 11:41:09;;;;;;;4.57;2.75;;;16.50;87.60;;;;;;5013074;28;20535;-68
2022/10/15 11:44:12;;;;;;;2.67;2.35;;;16.50;87.80;;;;;;5011237;28;20478;-68
2022/10/15 11:47:09;;;;;;;3.30;2.38;;;16.60;87.70;;;;;;5016510;28;20377;-68
2022/10/15 11:49:59;;;;;;;5.60;1.67;;;16.60;87.80;;;;;;5003302;28;20014;-66
2022/10/15 11:53:06;;;;;;;2.38;1.60;;;16.60;88.10;;;;;;5011726;28;20022;-66
2022/10/15 11:56:04;;;;;;;2.03;1.75;;;16.60;87.90;;;;;;4994130;28;20070;-67
2022/10/15 11:58:35;;;;;;;8.82;2.15;;;16.60;87.90;;;;;;4995666;28;20038;-67
2022/10/15 12:01:06;;;;;;;1.80;1.50;;;16.60;88.10;;;;;;5012388;28;20038;-67
2022/10/15 12:03:39;;;;;;;2.88;1.60;;;16.70;88.10;;;;;;5012059;28;20113;-67
2022/10/15 12:06:10;;;;;;;2.30;1.77;;;16.70;88.10;;;;;;4993028;28;20018;-68
2022/10/15 12:08:38;;;;;;;1.47;1.37;;;16.70;88.50;;;;;;4995625;28;20083;-67
2022/10/15 12:11:28;;;;;;;2.03;1.83;;;16.80;89.10;;;;;;5012134;28;20033;-68
2022/10/15 12:14:13;;;;;;;2.20;1.60;;;16.80;88.50;;;;;;5012285;28;20037;-68
2022/10/15 12:16:53;;;;;;;1.55;1.30;;;16.80;88.60;;;;;;5011490;28;20400;-68
2022/10/15 12:19:33;;;;;;;1.85;1.52;;;16.80;88.70;;;;;;5012141;28;20465;-69
2022/10/15 12:22:08;;;;;;;4.25;1.77;;;16.80;88.70;;;;;;4999160;28;20053;-69
2022/10/15 12:24:36;;;;;;;2.55;2.35;;;16.80;88.80;;;;;;5012258;28;20025;-69
2022/10/15 12:27:17;;;;;;;3.58;1.77;;;16.90;88.80;;;;;;4970710;28;20118;-68
2022/10/15 12:30:06;;;;;;;1.63;1.25;;;16.90;89.00;;;;;;4973198;28;20383;-69
2022/10/15 12:32:47;;;;;;;2.30;2.05;;;16.90;88.90;;;;;;4977607;28;20420;-67
2022/10/15 12:35:35;;;;;;;2.08;1.50;;;17.00;89.00;;;;;;4971644;28;20027;-68
2022/10/15 12:38:41;;;;;;;4.20;1.50;;;17.00;89.10;;;;;;4971982;28;20089;-67
2022/10/15 12:41:09;;;;;;;1.98;1.50;;;17.00;89.00;;;;;;4963654;28;20050;-66
2022/10/15 12:43:42;;;;;;;1.23;1.10;;;17.00;89.20;;;;;;4972595;28;20019;-68
2022/10/15 12:46:09;;;;;;;1.45;1.30;;;17.10;89.50;;;;;;4972479;28;20034;-68
2022/10/15 12:48:38;;;;;;;2.63;1.58;;;17.10;89.40;;;;;;4972120;28;20433;-66
2022/10/15 12:51:22;;;;;;;1.15;1.02;;;17.20;89.50;;;;;;4971163;28;20053;-66
2022/10/15 12:53:57;;;;;;;2.22;1.42;;;17.20;89.40;;;;;;4972337;28;20090;-68
2022/10/15 12:56:38;;;;;;;1.90;1.17;;;17.20;89.30;;;;;;4971362;28;20031;-68
2022/10/15 12:59:48;;;;;;;3.08;1.33;;;17.30;89.20;;;;;;4972276;28;20023;-67
2022/10/15 13:02:40;;;;;;;5.35;1.75;;;17.30;89.40;;;;;;4944207;28;20090;-68
2022/10/15 13:05:23;;;;;;;1.55;1.42;;;17.30;89.80;;;;;;4972263;28;20061;-67
2022/10/15 13:07:51;;;;;;;0.80;0.80;;;17.40;89.70;;;;;;4971202;28;20026;-67